createdAt,value
2022-10-20T00:00:47.982Z,3.58
2022-10-20T00:03:15.508Z,3.70
2022-10-20T00:05:43.129Z,4.15
2022-10-20T00:08:10.604Z,3.60
2022-10-20T00:10:39.475Z,3.60
2022-10-20T00:13:06.833Z,3.97
2022-10-20T00:15:34.267Z,4.20
2022-10-20T00:18:01.722Z,4.25
2022-10-20T00:20:29.200Z,4.30
2022-10-20T00:22:56.647Z,3.58
2022-10-20T00:25:24.145Z,3.88
2022-10-20T00:27:52.989Z,3.90
2022-10-20T00:30:22.544Z,4.22
2022-10-20T00:32:52.597Z,4.05
2022-10-20T00:35:19.993Z,3.75
2022-10-20T00:37:47.475Z,3.50
2022-10-20T00:40:14.980Z,3.53
2022-10-20T00:42:44.978Z,4.10
2022-10-20T00:45:15.638Z,3.40
2022-10-20T00:50:13.244Z,3.78
2022-10-20T00:52:40.641Z,3.50
2022-10-20T00:55:09.136Z,4.15
2022-10-20T00:57:36.902Z,4.68
2022-10-20T01:00:06.412Z,3.80
2022-10-20T01:02:35.328Z,3.38
2022-10-20T01:05:02.793Z,3.95
2022-10-20T01:07:30.198Z,3.92
2022-10-20T01:09:57.610Z,4.13
2022-10-20T01:12:29.184Z,3.72
2022-10-20T01:15:02.011Z,3.85
2022-10-20T01:17:39.264Z,3.95
2022-10-20T01:20:39.478Z,4.25
2022-10-20T01:23:45.024Z,4.70
2022-10-20T01:26:37.196Z,3.78
2022-10-20T01:29:09.067Z,3.58
2022-10-20T01:31:40.975Z,3.25
2022-10-20T01:34:12.885Z,4.32
2022-10-20T01:36:41.597Z,3.95
2022-10-20T01:39:11.280Z,3.90
2022-10-20T01:41:41.204Z,3.70
2022-10-20T01:44:11.330Z,3.35
2022-10-20T01:46:39.354Z,3.97
2022-10-20T01:49:06.748Z,4.25
2022-10-20T01:51:34.355Z,3.90
2022-10-20T01:54:01.800Z,4.13
2022-10-20T01:56:34.489Z,4.15
2022-10-20T01:59:11.924Z,4.10
2022-10-20T02:01:49.494Z,3.35
2022-10-20T02:04:17.031Z,3.80
2022-10-20T02:06:49.519Z,4.45
2022-10-20T02:09:20.210Z,3.22
2022-10-20T02:11:51.606Z,3.28
2022-10-20T02:14:20.746Z,3.70
2022-10-20T02:16:49.494Z,3.55
2022-10-20T02:19:18.216Z,3.70
2022-10-20T02:21:45.857Z,3.83
2022-10-20T02:24:13.484Z,3.72
2022-10-20T02:26:41.061Z,4.50
2022-10-20T02:29:13.566Z,4.63
2022-10-20T02:31:42.645Z,4.78
2022-10-20T02:34:10.130Z,4.00
2022-10-20T02:36:38.955Z,3.97
2022-10-20T02:39:06.662Z,4.50
2022-10-20T02:41:34.301Z,5.22
2022-10-20T02:44:01.739Z,4.20
2022-10-20T02:46:29.294Z,5.00
2022-10-20T02:48:58.251Z,4.45
2022-10-20T02:51:25.770Z,3.75
2022-10-20T02:53:53.186Z,4.00
2022-10-20T02:56:20.743Z,3.80
2022-10-20T02:58:48.184Z,4.20
2022-10-20T03:01:15.843Z,4.13
2022-10-20T03:03:43.331Z,3.55
2022-10-20T03:06:13.406Z,3.38
2022-10-20T03:08:40.982Z,3.80
2022-10-20T03:11:08.558Z,3.33
2022-10-20T03:13:36.187Z,3.78
2022-10-20T03:16:04.120Z,3.95
2022-10-20T03:18:31.678Z,3.10
2022-10-20T03:20:59.109Z,3.80
2022-10-20T03:23:28.070Z,4.22
2022-10-20T03:26:02.365Z,4.13
2022-10-20T03:28:29.981Z,4.05
2022-10-20T03:30:57.422Z,4.35
2022-10-20T03:33:24.973Z,4.60
2022-10-20T03:35:52.534Z,4.03
2022-10-20T03:38:20.047Z,3.50
2022-10-20T03:40:49.113Z,3.63
2022-10-20T03:43:16.736Z,4.32
2022-10-20T03:45:44.264Z,4.43
2022-10-20T03:48:11.932Z,3.80
2022-10-20T03:50:39.417Z,3.42
2022-10-20T03:53:07.050Z,3.33
2022-10-20T03:55:34.527Z,3.28
2022-10-20T03:58:03.557Z,3.40
2022-10-20T04:00:31.091Z,3.97
2022-10-20T04:02:58.655Z,3.97
2022-10-20T04:05:26.173Z,3.83
2022-10-20T04:07:53.742Z,3.88
2022-10-20T04:10:21.324Z,4.03
2022-10-20T04:12:48.798Z,3.65
2022-10-20T04:15:17.922Z,4.38
2022-10-20T04:17:45.494Z,3.70
2022-10-20T04:20:13.032Z,3.78
2022-10-20T04:22:40.477Z,3.90
2022-10-20T04:25:08.461Z,4.22
2022-10-20T04:27:36.354Z,3.75
2022-10-20T04:30:04.538Z,4.50
2022-10-20T04:32:33.539Z,4.35
2022-10-20T04:35:01.117Z,3.97
2022-10-20T04:37:28.701Z,4.07
2022-10-20T04:39:56.244Z,4.15
2022-10-20T04:42:23.818Z,3.28
2022-10-20T04:44:51.419Z,3.20
2022-10-20T04:47:19.025Z,3.90
2022-10-20T04:49:48.036Z,3.47
2022-10-20T04:52:15.567Z,3.20
2022-10-20T04:54:43.194Z,3.47
2022-10-20T04:57:10.733Z,3.45
2022-10-20T04:59:38.317Z,3.42
2022-10-20T05:02:05.976Z,3.17
2022-10-20T05:04:33.790Z,3.38
2022-10-20T05:07:02.835Z,3.58
2022-10-20T05:09:30.402Z,3.00
2022-10-20T05:11:57.980Z,3.10
2022-10-20T05:14:25.545Z,2.88
2022-10-20T05:16:53.179Z,3.20
2022-10-20T05:19:20.824Z,3.55
2022-10-20T05:21:48.368Z,3.03
2022-10-20T05:24:20.895Z,3.28
2022-10-20T05:29:17.272Z,2.97
2022-10-20T05:31:44.856Z,3.42
2022-10-20T05:34:12.535Z,2.95
2022-10-20T05:36:40.090Z,2.78
2022-10-20T05:39:07.656Z,2.45
2022-10-20T05:41:38.959Z,2.90
2022-10-20T05:44:08.234Z,2.95
2022-10-20T05:46:37.057Z,3.03
2022-10-20T05:49:04.640Z,2.65
2022-10-20T05:51:34.326Z,2.40
2022-10-20T05:54:02.612Z,2.63
2022-10-20T05:56:30.604Z,2.72
2022-10-20T05:58:59.632Z,3.38
2022-10-20T06:01:28.274Z,2.40
2022-10-20T06:03:57.037Z,2.55
2022-10-20T06:06:26.004Z,3.00
2022-10-20T06:08:54.071Z,2.60
2022-10-20T06:11:21.833Z,2.42
2022-10-20T06:13:51.893Z,2.70
2022-10-20T06:16:22.932Z,2.83
2022-10-20T06:18:50.567Z,2.70
2022-10-20T06:21:19.346Z,2.50
2022-10-20T06:23:46.917Z,2.90
2022-10-20T06:26:15.857Z,2.55
2022-10-20T06:28:44.099Z,2.50
2022-10-20T06:31:12.674Z,2.50
2022-10-20T06:33:41.739Z,2.92
2022-10-20T06:36:09.433Z,2.75
2022-10-20T06:38:37.002Z,3.05
2022-10-20T06:41:04.601Z,2.95
2022-10-20T06:43:32.137Z,2.38
2022-10-20T06:46:00.433Z,2.55
2022-10-20T06:48:28.441Z,3.00
2022-10-20T06:51:01.040Z,2.50
2022-10-20T06:53:28.820Z,2.85
2022-10-20T06:55:57.788Z,2.30
2022-10-20T06:58:25.420Z,2.70
2022-10-20T07:00:59.716Z,2.88
2022-10-20T07:03:27.871Z,3.05
2022-10-20T07:05:55.431Z,2.67
2022-10-20T07:08:24.960Z,2.38
2022-10-20T07:10:59.828Z,3.08
2022-10-20T07:13:27.641Z,3.30
2022-10-20T07:15:55.411Z,3.53
2022-10-20T07:18:23.105Z,3.38
2022-10-20T07:20:50.635Z,2.78
2022-10-20T07:23:18.195Z,2.92
2022-10-20T07:25:47.223Z,2.97
2022-10-20T07:28:14.710Z,2.42
2022-10-20T07:30:42.418Z,2.97
2022-10-20T07:33:09.988Z,2.88
2022-10-20T07:35:37.528Z,2.60
2022-10-20T07:38:05.137Z,2.70
2022-10-20T07:40:32.752Z,2.47
2022-10-20T07:43:01.883Z,2.33
2022-10-20T07:45:29.427Z,2.97
2022-10-20T07:47:56.930Z,2.75
2022-10-20T07:50:24.504Z,2.63
2022-10-20T07:52:52.070Z,3.10
2022-10-20T07:55:37.741Z,2.78
2022-10-20T07:58:08.360Z,2.50
2022-10-20T08:00:35.962Z,2.83
2022-10-20T08:03:03.637Z,3.22
2022-10-20T08:05:31.347Z,2.17
2022-10-20T08:07:58.951Z,2.97
2022-10-20T08:10:26.571Z,2.60
2022-10-20T08:12:54.134Z,2.75
2022-10-20T08:15:23.414Z,2.35
2022-10-20T08:17:51.149Z,3.03
2022-10-20T08:20:25.000Z,2.92
2022-10-20T08:22:54.963Z,3.50
2022-10-20T08:25:22.760Z,2.50
2022-10-20T08:27:50.385Z,2.60
2022-10-20T08:30:25.042Z,2.45
2022-10-20T08:32:54.334Z,2.70
2022-10-20T08:35:22.208Z,2.67
2022-10-20T08:37:49.789Z,2.15
2022-10-20T08:40:18.527Z,2.70
2022-10-20T08:42:46.157Z,2.55
2022-10-20T08:45:15.519Z,2.30
2022-10-20T08:47:43.292Z,2.55
2022-10-20T08:50:13.207Z,2.60
2022-10-20T08:52:40.808Z,2.30
2022-10-20T08:55:10.599Z,3.00
2022-10-20T08:57:38.441Z,2.63
2022-10-20T09:00:15.301Z,2.80
2022-10-20T09:02:42.898Z,2.05
2022-10-20T09:05:14.055Z,2.53
2022-10-20T09:10:22.511Z,2.22
2022-10-20T09:12:50.141Z,2.10
2022-10-20T09:15:18.718Z,2.50
2022-10-20T09:17:49.320Z,2.97
2022-10-20T09:20:19.720Z,2.50
2022-10-20T09:22:47.908Z,2.38
2022-10-20T09:25:16.578Z,2.38
2022-10-20T09:27:44.316Z,2.45
2022-10-20T09:30:20.742Z,2.60
2022-10-20T09:32:50.766Z,2.60
2022-10-20T09:35:26.844Z,2.13
2022-10-20T09:38:04.233Z,2.53
2022-10-20T09:40:31.906Z,2.40
2022-10-20T09:43:01.922Z,2.45
2022-10-20T09:45:30.148Z,2.10
2022-10-20T09:48:02.548Z,2.22
2022-10-20T09:50:32.379Z,2.40
2022-10-20T09:53:00.049Z,2.15
2022-10-20T09:55:29.855Z,2.47
2022-10-20T09:57:59.298Z,2.00
2022-10-20T10:00:43.303Z,1.95
2022-10-20T10:03:16.231Z,1.98
2022-10-20T10:05:45.250Z,2.60
2022-10-20T10:08:14.361Z,1.90
2022-10-20T10:10:41.951Z,1.90
2022-10-20T10:13:21.198Z,2.10
2022-10-20T10:16:00.246Z,2.63
2022-10-20T10:18:27.882Z,1.90
2022-10-20T10:21:01.861Z,1.98
2022-10-20T10:26:00.578Z,2.10
2022-10-20T10:28:34.662Z,2.53
2022-10-20T10:31:20.488Z,1.75
2022-10-20T10:33:49.422Z,1.70
2022-10-20T10:36:28.125Z,2.28
2022-10-20T10:38:55.770Z,1.73
2022-10-20T10:41:33.791Z,2.00
2022-10-20T10:44:04.243Z,2.15
2022-10-20T10:46:35.895Z,1.95
2022-10-20T10:49:18.196Z,2.03
2022-10-20T10:51:52.215Z,2.17
2022-10-20T10:54:28.197Z,2.20
2022-10-20T10:56:57.046Z,2.08
2022-10-20T10:59:26.589Z,1.95
2022-10-20T11:02:25.541Z,1.90
2022-10-20T11:05:21.859Z,1.80
2022-10-20T11:07:54.958Z,1.73
2022-10-20T11:10:24.850Z,2.43
2022-10-20T11:13:09.850Z,1.80
2022-10-20T11:15:47.689Z,1.80
2022-10-20T11:18:19.046Z,1.92
2022-10-20T11:20:51.352Z,2.00
2022-10-20T11:23:55.181Z,2.33
2022-10-20T11:26:28.204Z,2.00
2022-10-20T11:28:57.343Z,2.17
2022-10-20T11:31:28.582Z,1.80
2022-10-20T11:34:00.652Z,1.60
2022-10-20T11:36:32.656Z,1.73
2022-10-20T11:39:01.757Z,1.50
2022-10-20T11:41:32.324Z,1.83
2022-10-20T11:44:01.840Z,1.60
2022-10-20T11:46:34.224Z,2.10
2022-10-20T11:49:04.021Z,1.83
2022-10-20T11:51:47.732Z,1.75
2022-10-20T11:54:33.255Z,1.90
2022-10-20T11:57:24.352Z,2.20
2022-10-20T12:00:04.236Z,2.10
2022-10-20T12:03:03.996Z,2.30
2022-10-20T12:05:48.257Z,1.95
2022-10-20T12:11:03.745Z,2.10
2022-10-20T12:13:37.666Z,1.63
2022-10-20T12:18:33.458Z,2.15
2022-10-20T12:21:01.412Z,1.70
2022-10-20T12:23:59.528Z,1.60
2022-10-20T12:27:05.404Z,1.88
2022-10-20T12:30:01.303Z,1.83
2022-10-20T12:32:53.841Z,1.70
2022-10-20T12:35:52.722Z,1.42
2022-10-20T12:38:20.347Z,1.77
2022-10-20T12:40:52.429Z,1.95
2022-10-20T12:43:51.286Z,1.55
2022-10-20T12:46:21.621Z,1.98
2022-10-20T12:48:50.694Z,1.80
2022-10-20T12:51:30.877Z,1.55
2022-10-20T12:54:00.400Z,1.75
2022-10-20T12:56:35.499Z,1.67
2022-10-20T12:59:33.861Z,1.80
2022-10-20T13:02:37.685Z,1.65
2022-10-20T13:05:27.347Z,1.75
2022-10-20T13:08:23.343Z,1.63
2022-10-20T13:10:50.956Z,1.77
2022-10-20T13:13:39.727Z,1.55
2022-10-20T13:16:14.978Z,1.77
2022-10-20T13:18:45.711Z,1.52
2022-10-20T13:21:21.860Z,1.60
2022-10-20T13:23:54.119Z,1.65
2022-10-20T13:26:23.269Z,2.00
2022-10-20T13:28:52.570Z,1.45
2022-10-20T13:31:23.328Z,1.50
2022-10-20T13:34:10.452Z,1.67
2022-10-20T13:36:48.737Z,1.83
2022-10-20T13:39:18.520Z,1.38
2022-10-20T13:41:52.295Z,1.77
2022-10-20T13:44:31.219Z,1.50
2022-10-20T13:47:06.333Z,2.10
2022-10-20T13:49:43.137Z,1.83
2022-10-20T13:52:11.947Z,1.48
2022-10-20T13:54:39.468Z,1.85
2022-10-20T13:57:07.233Z,1.70
2022-10-20T13:59:34.912Z,1.92
2022-10-20T14:02:23.016Z,1.88
2022-10-20T14:05:01.847Z,1.80
2022-10-20T14:07:36.728Z,1.83
2022-10-20T14:10:04.805Z,1.73
2022-10-20T14:12:32.402Z,1.80
2022-10-20T14:15:02.231Z,1.90
2022-10-20T14:17:31.521Z,1.50
2022-10-20T14:20:19.527Z,1.92
2022-10-20T14:22:47.104Z,1.80
2022-10-20T14:25:14.639Z,1.98
2022-10-20T14:27:42.241Z,1.65
2022-10-20T14:30:14.713Z,1.80
2022-10-20T14:32:44.283Z,2.00
2022-10-20T14:35:18.332Z,1.67
2022-10-20T14:37:47.047Z,1.85
2022-10-20T14:40:20.089Z,1.95
2022-10-20T14:42:47.805Z,1.80
2022-10-20T14:45:20.113Z,1.58
2022-10-20T14:47:49.218Z,1.75
2022-10-20T14:50:26.193Z,1.67
2022-10-20T14:52:54.386Z,1.88
2022-10-20T14:55:32.580Z,2.30
2022-10-20T14:58:00.118Z,1.77
2022-10-20T15:00:31.085Z,1.77
2022-10-20T15:03:01.000Z,1.50
2022-10-20T15:05:34.738Z,1.75
2022-10-20T15:08:09.637Z,1.45
2022-10-20T15:10:37.171Z,1.98
2022-10-20T15:13:04.752Z,2.00
2022-10-20T15:15:37.441Z,2.17
2022-10-20T15:18:15.022Z,2.03
2022-10-20T15:20:42.900Z,1.60
2022-10-20T15:23:11.190Z,1.42
2022-10-20T15:25:46.284Z,1.45
2022-10-20T15:28:37.237Z,1.50
2022-10-20T15:31:06.399Z,1.98
2022-10-20T15:33:35.389Z,1.80
2022-10-20T15:36:02.913Z,1.67
2022-10-20T15:38:30.474Z,1.70
2022-10-20T15:43:27.538Z,1.90
2022-10-20T15:45:56.071Z,2.28
2022-10-20T15:48:23.666Z,1.50
2022-10-20T15:50:52.747Z,1.60
2022-10-20T15:53:20.445Z,1.60
2022-10-20T15:55:48.040Z,1.58
2022-10-20T15:58:15.578Z,1.40
2022-10-20T16:00:43.127Z,1.90
2022-10-20T16:03:13.221Z,1.85
2022-10-20T16:05:40.846Z,1.63
2022-10-20T16:08:09.996Z,1.60
2022-10-20T16:10:37.563Z,1.50
2022-10-20T16:13:05.114Z,1.40
2022-10-20T16:15:32.639Z,1.85
2022-10-20T16:18:01.208Z,1.83
2022-10-20T16:20:30.294Z,1.80
2022-10-20T16:22:57.924Z,2.10
2022-10-20T16:25:27.071Z,1.85
2022-10-20T16:27:54.602Z,1.65
2022-10-20T16:30:22.148Z,1.73
2022-10-20T16:32:49.713Z,1.75
2022-10-20T16:35:17.281Z,1.85
2022-10-20T16:37:44.925Z,1.55
2022-10-20T16:40:12.544Z,1.55
2022-10-20T16:42:41.536Z,2.20
2022-10-20T16:45:09.912Z,1.40
2022-10-20T16:47:37.689Z,2.13
2022-10-20T16:50:06.269Z,1.92
2022-10-20T16:52:33.812Z,1.42
2022-10-20T16:55:01.313Z,1.70
2022-10-20T16:57:28.898Z,1.67
2022-10-20T16:59:58.020Z,1.90
2022-10-20T17:02:25.526Z,1.60
2022-10-20T17:04:53.198Z,1.80
2022-10-20T17:07:20.787Z,2.00
2022-10-20T17:09:48.328Z,1.73
2022-10-20T17:12:15.912Z,2.33
2022-10-20T17:14:43.447Z,1.60
2022-10-20T17:17:12.588Z,1.42
2022-10-20T17:19:40.179Z,2.08
2022-10-20T17:22:07.798Z,1.73
2022-10-20T17:24:35.493Z,1.90
2022-10-20T17:27:02.998Z,2.47
2022-10-20T17:29:30.597Z,2.35
2022-10-20T17:31:58.214Z,1.67
2022-10-20T17:34:27.381Z,1.73
2022-10-20T17:36:55.021Z,1.67
2022-10-20T17:39:22.600Z,2.28
2022-10-20T17:41:50.087Z,2.00
2022-10-20T17:44:17.675Z,1.90
2022-10-20T17:46:45.232Z,2.50
2022-10-20T17:49:12.770Z,1.80
2022-10-20T17:51:41.827Z,2.03
2022-10-20T17:54:09.391Z,2.15
2022-10-20T17:56:37.423Z,1.85
2022-10-20T17:59:06.224Z,2.08
2022-10-20T18:01:34.477Z,1.80
2022-10-20T18:04:03.476Z,2.05
2022-10-20T18:06:34.398Z,2.10
2022-10-20T18:09:05.775Z,1.60
2022-10-20T18:11:34.643Z,2.00
2022-10-20T18:14:02.202Z,2.00
2022-10-20T18:16:30.561Z,2.20
2022-10-20T18:21:30.852Z,2.13
2022-10-20T18:23:59.740Z,2.05
2022-10-20T18:26:29.366Z,1.90
2022-10-20T18:28:57.810Z,2.38
2022-10-20T18:31:26.168Z,2.28
2022-10-20T18:33:56.369Z,2.33
2022-10-20T18:36:24.707Z,2.40
2022-10-20T18:38:52.356Z,2.15
2022-10-20T18:41:20.681Z,2.92
2022-10-20T18:43:56.924Z,2.17
2022-10-20T18:46:25.927Z,3.03
2022-10-20T18:48:53.582Z,2.67
2022-10-20T18:51:21.110Z,2.38
2022-10-20T18:53:51.383Z,2.13
2022-10-20T18:56:20.176Z,2.20
2022-10-20T18:58:50.323Z,3.00
2022-10-20T19:01:18.928Z,2.60
2022-10-20T19:03:47.658Z,2.63
2022-10-20T19:06:17.023Z,3.05
2022-10-20T19:08:45.541Z,3.28
2022-10-20T19:11:13.767Z,3.13
2022-10-20T19:13:41.298Z,3.22
2022-10-20T19:16:12.140Z,3.30
2022-10-20T19:18:40.156Z,3.90
2022-10-20T19:21:07.794Z,3.35
2022-10-20T19:23:36.652Z,3.80
2022-10-20T19:26:05.847Z,3.33
2022-10-20T19:28:35.279Z,3.80
2022-10-20T19:31:02.914Z,3.03
2022-10-20T19:33:32.004Z,2.72
2022-10-20T19:35:59.588Z,3.08
2022-10-20T19:38:27.291Z,3.05
2022-10-20T19:40:54.852Z,3.08
2022-10-20T19:43:22.440Z,4.35
2022-10-20T19:45:50.004Z,3.90
2022-10-20T19:48:17.633Z,3.40
2022-10-20T19:50:46.725Z,3.35
2022-10-20T19:53:14.315Z,3.92
2022-10-20T19:55:41.857Z,3.80
2022-10-20T20:00:43.878Z,4.35
2022-10-20T20:03:11.473Z,4.70
2022-10-20T20:05:39.008Z,4.30
2022-10-20T20:08:08.095Z,4.75
2022-10-20T20:10:35.758Z,4.97
2022-10-20T20:13:03.330Z,4.47
2022-10-20T20:15:30.922Z,4.82
2022-10-20T20:17:58.595Z,4.10
2022-10-20T20:20:26.167Z,4.85
2022-10-20T20:22:53.769Z,3.38
2022-10-20T20:25:22.783Z,4.15
2022-10-20T20:27:50.240Z,3.90
2022-10-20T20:30:17.969Z,4.40
2022-10-20T20:32:47.732Z,4.47
2022-10-20T20:35:18.593Z,5.00
2022-10-20T20:37:46.187Z,4.60
2022-10-20T20:40:14.001Z,3.42
2022-10-20T20:42:43.187Z,3.92
2022-10-20T20:45:11.429Z,4.50
2022-10-20T20:47:39.246Z,4.32
2022-10-20T20:50:08.079Z,3.65
2022-10-20T20:52:35.563Z,4.03
2022-10-20T20:55:03.283Z,5.00
2022-10-20T20:57:30.825Z,4.70
2022-10-20T20:59:59.892Z,3.83
2022-10-20T21:02:27.379Z,4.18
2022-10-20T21:04:54.930Z,3.88
2022-10-20T21:07:22.420Z,4.55
2022-10-20T21:09:49.975Z,4.03
2022-10-20T21:12:17.568Z,4.22
2022-10-20T21:14:46.096Z,5.15
2022-10-20T21:17:15.159Z,3.35
2022-10-20T21:19:42.787Z,4.78
2022-10-20T21:22:10.311Z,3.67
2022-10-20T21:24:37.917Z,3.83
2022-10-20T21:27:05.489Z,4.70
2022-10-20T21:29:32.978Z,3.92
2022-10-20T21:32:00.509Z,3.78
2022-10-20T21:34:29.693Z,4.32
2022-10-20T21:36:57.329Z,4.15
2022-10-20T21:39:24.982Z,4.55
2022-10-20T21:41:52.612Z,3.97
2022-10-20T21:44:20.178Z,4.20
2022-10-20T21:46:47.855Z,4.57
2022-10-20T21:49:16.976Z,4.05
2022-10-20T21:51:47.209Z,4.05
2022-10-20T21:54:16.366Z,4.10
2022-10-20T21:56:44.065Z,4.38
2022-10-20T21:59:16.148Z,4.10
2022-10-20T22:01:43.909Z,4.20
2022-10-20T22:04:11.393Z,4.38
2022-10-20T22:06:38.974Z,3.58
2022-10-20T22:09:08.131Z,3.78
2022-10-20T22:11:37.487Z,3.92
2022-10-20T22:14:05.070Z,3.72
2022-10-20T22:16:33.811Z,3.85
2022-10-20T22:19:02.662Z,3.67
2022-10-20T22:21:30.251Z,3.63
2022-10-20T22:23:58.382Z,3.78
2022-10-20T22:26:27.926Z,3.40
2022-10-20T22:28:55.513Z,4.20
2022-10-20T22:31:23.237Z,3.90
2022-10-20T22:33:50.942Z,4.22
2022-10-20T22:36:18.481Z,3.50
2022-10-20T22:38:46.026Z,4.22
2022-10-20T22:41:13.718Z,2.97
2022-10-20T22:43:42.732Z,3.53
2022-10-20T22:46:10.249Z,3.67
2022-10-20T22:48:37.799Z,3.38
2022-10-20T22:51:05.549Z,3.88
2022-10-20T22:53:33.148Z,2.92
2022-10-20T22:56:06.368Z,3.25
2022-10-20T22:58:33.973Z,3.58
2022-10-20T23:01:06.286Z,3.63
2022-10-20T23:03:33.868Z,2.90
2022-10-20T23:06:02.208Z,3.08
2022-10-20T23:08:32.015Z,3.58
2022-10-20T23:11:00.575Z,3.20
2022-10-20T23:13:28.103Z,3.47
2022-10-20T23:15:55.710Z,3.38
2022-10-20T23:18:24.785Z,3.08
2022-10-20T23:20:54.794Z,3.08
2022-10-20T23:23:25.335Z,3.15
2022-10-20T23:25:52.914Z,3.22
2022-10-20T23:28:20.512Z,2.85
2022-10-20T23:30:48.113Z,2.67
2022-10-20T23:33:15.665Z,2.88
2022-10-20T23:35:46.537Z,2.53
2022-10-20T23:38:14.098Z,2.75
2022-10-20T23:40:41.672Z,2.97
2022-10-20T23:43:09.184Z,3.25
2022-10-20T23:45:37.753Z,2.80
2022-10-20T23:48:05.833Z,2.78
2022-10-20T23:50:33.379Z,2.72
2022-10-20T23:53:02.379Z,2.80
2022-10-20T23:55:29.963Z,3.03
2022-10-20T23:57:57.553Z,3.35
